Time;durP1;ratioP1;P1;durP2;ratioP2;P2;SDS_P1;SDS_P2;PMS_P1;PMS_P2;Temp;Humidity;BMP_temperature;BMP_pressure;BME280_temperature;BME280_humidity;BME280_pressure;Samples;Min_cycle;Max_cycle;Signal;HPM_P1;HPM_P2
2021/04/29 00:01:45;;;;;;;;;;;;;;;14.10;56.38;97486.81;4885131;29;19919;-79
2021/04/29 00:04:10;;;;;;;;;;;;;;;14.02;56.57;97486.53;4900124;29;19915;-78
2021/04/29 00:06:35;;;;;;;;;;;;;;;13.91;57.40;97492.47;4899780;29;19933;-77
2021/04/29 00:09:01;;;;;;;;;;;;;;;13.57;58.87;97478.44;4916169;29;19922;-77
2021/04/29 00:11:26;;;;;;;;;;;;;;;13.59;58.37;97471.38;4894601;29;20017;-78
2021/04/29 00:13:52;;;;;;;;;;;;;;;13.22;60.44;97467.88;4888028;29;19954;-77
2021/04/29 00:16:17;;;;;;;;;;;;;;;13.21;60.48;97461.88;4905379;29;19980;-78
2021/04/29 00:18:42;;;;;;;;;;;;;;;13.28;60.28;97463.16;4900312;29;19919;-77
2021/04/29 00:21:08;;;;;;;;;;;;;;;13.27;61.20;97451.09;4887705;29;19916;-77
2021/04/29 00:23:33;;;;;;;;;;;;;;;13.42;59.98;97459.63;4922822;29;19923;-78
2021/04/29 00:25:59;;;;;;;;;;;;;;;13.31;60.61;97455.19;4905533;29;20009;-78
2021/04/29 00:28:24;;;;;;;;;;;;;;;13.03;62.34;97452.78;4901755;29;19919;-78
2021/04/29 00:30:50;;;;;;;;;;;;;;;12.91;62.18;97452.66;4904744;29;19941;-78
2021/04/29 00:33:15;;;;;;;;;;;;;;;13.04;61.86;97449.25;4905403;29;19919;-78
2021/04/29 00:35:41;;;;;;;;;;;;;;;12.54;64.32;97449.91;4905446;29;20042;-79
2021/04/29 00:38:06;;;;;;;;;;;;;;;12.80;63.87;97447.38;4881879;29;19967;-78
2021/04/29 00:40:32;;;;;;;;;;;;;;;12.77;63.57;97442.41;4900355;29;19982;-78
2021/04/29 00:42:57;;;;;;;;;;;;;;;12.88;63.06;97452.03;4904140;29;19939;-77
2021/04/29 00:45:23;;;;;;;;;;;;;;;13.06;62.64;97449.97;4894582;29;20377;-78
2021/04/29 00:47:50;;;;;;;;;;;;;;;12.59;64.55;97464.25;4920370;29;21464;-78
2021/04/29 00:50:16;;;;;;;;;;;;;;;13.05;63.27;97458.69;4888293;29;19926;-77
2021/04/29 00:52:41;;;;;;;;;;;;;;;12.84;62.80;97463.50;4887981;29;19950;-77
2021/04/29 00:55:07;;;;;;;;;;;;;;;12.97;63.17;97462.56;4920741;29;19955;-78
2021/04/29 00:57:33;;;;;;;;;;;;;;;12.86;64.13;97462.47;4902476;29;20348;-78
2021/04/29 00:59:59;;;;;;;;;;;;;;;12.85;64.11;97462.56;4901749;29;19926;-78
2021/04/29 01:02:25;;;;;;;;;;;;;;;12.86;64.04;97457.28;4887840;29;19947;-78
2021/04/29 01:04:52;;;;;;;;;;;;;;;12.49;66.63;97458.88;4904122;29;19919;-78
2021/04/29 01:07:17;;;;;;;;;;;;;;;12.67;65.61;97456.84;4888164;29;20397;-78
2021/04/29 01:09:52;;;;;;;;;;;;;;;12.76;66.37;97457.06;4908817;29;19926;-77
2021/04/29 01:12:20;;;;;;;;;;;;;;;12.76;66.29;97446.75;4907308;29;19975;-78
2021/04/29 01:14:46;;;;;;;;;;;;;;;12.78;65.82;97428.56;4924757;29;19991;-78
2021/04/29 01:17:12;;;;;;;;;;;;;;;12.63;66.80;97437.31;4907888;29;19998;-77
2021/04/29 01:19:45;;;;;;;;;;;;;;;12.60;68.00;97447.84;4908338;29;19950;-78
2021/04/29 01:22:12;;;;;;;;;;;;;;;12.43;68.16;97444.63;4905820;29;19923;-78
2021/04/29 01:24:46;;;;;;;;;;;;;;;12.45;68.19;97442.78;4905869;29;19919;-78
2021/04/29 01:27:13;;;;;;;;;;;;;;;12.72;67.84;97454.78;4924000;29;19916;-78
2021/04/29 01:29:38;;;;;;;;;;;;;;;12.69;67.15;97455.81;4897641;29;19994;-78
2021/04/29 01:32:04;;;;;;;;;;;;;;;12.84;66.47;97448.84;4891661;29;19969;-78
2021/04/29 01:34:31;;;;;;;;;;;;;;;12.58;68.52;97452.28;4893351;29;19911;-78
2021/04/29 01:36:57;;;;;;;;;;;;;;;12.61;68.23;97452.09;4892693;29;19975;-77
2021/04/29 01:39:22;;;;;;;;;;;;;;;12.60;67.92;97460.78;4923251;29;19918;-78
2021/04/29 01:41:48;;;;;;;;;;;;;;;12.38;69.23;97459.56;4908278;29;19934;-78
2021/04/29 01:44:14;;;;;;;;;;;;;;;12.45;68.76;97463.44;4891691;29;19923;-78
2021/04/29 01:46:40;;;;;;;;;;;;;;;12.63;67.90;97468.31;4905961;29;19915;-78
2021/04/29 01:49:06;;;;;;;;;;;;;;;12.70;67.31;97470.41;4890914;29;19929;-78
2021/04/29 01:51:32;;;;;;;;;;;;;;;12.78;67.46;97464.72;4908108;29;19923;-79
2021/04/29 01:53:57;;;;;;;;;;;;;;;12.85;66.78;97471.16;4905364;29;19943;-78
2021/04/29 01:56:23;;;;;;;;;;;;;;;12.77;67.22;97475.97;4906526;29;19998;-78
2021/04/29 01:58:48;;;;;;;;;;;;;;;12.71;67.84;97474.63;4905833;29;19919;-78
2021/04/29 02:01:13;;;;;;;;;;;;;;;12.85;66.81;97475.50;4906252;29;20502;-78
2021/04/29 02:03:39;;;;;;;;;;;;;;;12.83;67.73;97474.75;4907738;29;19922;-78
2021/04/29 02:06:05;;;;;;;;;;;;;;;12.73;67.74;97483.13;4887522;29;20050;-78
2021/04/29 02:08:30;;;;;;;;;;;;;;;12.91;66.23;97477.69;4901792;29;19919;-79
2021/04/29 02:10:56;;;;;;;;;;;;;;;13.14;65.21;97476.16;4892479;29;20361;-78
2021/04/29 02:13:21;;;;;;;;;;;;;;;13.35;65.26;97479.91;4888804;29;19923;-78
2021/04/29 02:15:50;;;;;;;;;;;;;;;13.31;63.48;97480.22;4907200;29;19961;-78
2021/04/29 02:18:18;;;;;;;;;;;;;;;12.95;64.80;97472.22;4887169;29;20650;-78
2021/04/29 02:20:44;;;;;;;;;;;;;;;12.95;65.96;97477.38;4891211;29;20010;-79
2021/04/29 02:23:11;;;;;;;;;;;;;;;13.11;67.27;97473.75;4907296;29;19915;-79
2021/04/29 02:25:36;;;;;;;;;;;;;;;13.06;64.99;97473.25;4906292;29;19971;-78
2021/04/29 02:28:02;;;;;;;;;;;;;;;12.84;66.97;97469.50;4908874;29;19939;-77
2021/04/29 02:30:28;;;;;;;;;;;;;;;13.07;65.92;97465.41;4907981;29;19940;-78
2021/04/29 02:32:53;;;;;;;;;;;;;;;12.51;68.69;97460.44;4908340;29;19958;-78
2021/04/29 02:35:19;;;;;;;;;;;;;;;12.03;72.23;97459.22;4890660;29;19970;-77
2021/04/29 02:37:44;;;;;;;;;;;;;;;12.44;72.66;97459.16;4906257;29;19923;-77
2021/04/29 02:40:10;;;;;;;;;;;;;;;12.61;70.93;97465.81;4896658;29;19918;-78
2021/04/29 02:42:37;;;;;;;;;;;;;;;12.56;70.86;97465.28;4894564;29;19919;-77
2021/04/29 02:45:02;;;;;;;;;;;;;;;12.31;72.27;97456.53;4907844;29;20058;-78
2021/04/29 02:47:28;;;;;;;;;;;;;;;12.48;71.54;97458.06;4906494;29;19954;-78
2021/04/29 02:49:53;;;;;;;;;;;;;;;12.48;71.17;97452.88;4907042;29;19919;-76
2021/04/29 02:52:19;;;;;;;;;;;;;;;12.05;73.70;97453.03;4890114;29;19919;-77
2021/04/29 02:54:44;;;;;;;;;;;;;;;12.45;71.76;97453.09;4906519;29;19955;-78
2021/04/29 02:57:10;;;;;;;;;;;;;;;12.14;72.45;97454.22;4889473;29;19915;-77
2021/04/29 02:59:38;;;;;;;;;;;;;;;12.51;72.15;97447.50;4905559;29;19915;-77
2021/04/29 03:02:04;;;;;;;;;;;;;;;12.23;73.33;97447.66;4909926;29;19919;-77
2021/04/29 03:04:29;;;;;;;;;;;;;;;12.46;72.63;97449.56;4906394;29;19942;-78
2021/04/29 03:06:55;;;;;;;;;;;;;;;12.61;70.20;97444.34;4885641;29;20294;-78
2021/04/29 03:09:20;;;;;;;;;;;;;;;12.55;71.62;97445.56;4923144;29;20228;-78
2021/04/29 03:11:45;;;;;;;;;;;;;;;12.54;72.76;97449.91;4907070;29;19942;-78
2021/04/29 03:14:11;;;;;;;;;;;;;;;12.49;72.03;97449.38;4897082;29;20822;-76
2021/04/29 03:16:36;;;;;;;;;;;;;;;12.46;72.24;97449.56;4907337;29;19915;-77
2021/04/29 03:19:02;;;;;;;;;;;;;;;12.41;73.05;97443.88;4910597;29;19938;-79
2021/04/29 03:21:27;;;;;;;;;;;;;;;12.76;69.44;97453.66;4899132;29;19915;-77
2021/04/29 03:23:53;;;;;;;;;;;;;;;12.45;72.04;97453.09;4925271;29;19916;-78
2021/04/29 03:26:18;;;;;;;;;;;;;;;12.71;69.62;97453.16;4905670;29;20009;-78
2021/04/29 03:28:44;;;;;;;;;;;;;;;12.27;71.95;97443.94;4923867;29;19915;-78
2021/04/29 03:31:09;;;;;;;;;;;;;;;12.59;70.13;97448.78;4891698;29;19944;-78
2021/04/29 03:33:35;;;;;;;;;;;;;;;12.60;70.49;97448.69;4887620;29;19915;-78
2021/04/29 03:36:00;;;;;;;;;;;;;;;12.58;70.44;97449.72;4905776;29;19919;-79
2021/04/29 03:38:25;;;;;;;;;;;;;;;12.56;70.10;97460.13;4922022;29;20053;-79
2021/04/29 03:40:51;;;;;;;;;;;;;;;12.59;70.87;97454.78;4923005;29;19922;-77
2021/04/29 03:43:16;;;;;;;;;;;;;;;12.48;71.05;97454.66;4904406;29;19919;-79
2021/04/29 03:45:42;;;;;;;;;;;;;;;12.51;71.46;97457.03;4900216;29;19967;-78
2021/04/29 03:48:07;;;;;;;;;;;;;;;12.69;68.85;97458.41;4896343;29;19926;-79
2021/04/29 03:50:33;;;;;;;;;;;;;;;12.57;70.19;97459.22;4905755;29;19970;-79
2021/04/29 03:52:58;;;;;;;;;;;;;;;12.73;69.40;97461.63;4906107;29;19990;-78
2021/04/29 03:55:23;;;;;;;;;;;;;;;12.61;70.06;97468.41;4891035;29;19958;-78
2021/04/29 03:57:50;;;;;;;;;;;;;;;12.59;69.86;97464.25;4906950;29;19919;-78
2021/04/29 04:00:17;;;;;;;;;;;;;;;12.67;71.36;97469.78;4886873;29;19954;-79
2021/04/29 04:02:44;;;;;;;;;;;;;;;12.82;67.76;97466.19;4906419;29;19918;-79
2021/04/29 04:05:09;;;;;;;;;;;;;;;12.84;68.32;97474.69;4898640;29;19947;-79
2021/04/29 04:07:35;;;;;;;;;;;;;;;12.48;70.76;97473.53;4906088;29;19923;-77
2021/04/29 04:10:00;;;;;;;;;;;;;;;12.79;68.69;97476.72;4900520;29;19919;-78
2021/04/29 04:12:26;;;;;;;;;;;;;;;12.62;69.13;97474.41;4908562;29;19978;-78
2021/04/29 04:14:51;;;;;;;;;;;;;;;12.81;67.62;97474.03;4894867;29;19922;-77
2021/04/29 04:17:16;;;;;;;;;;;;;;;12.30;72.80;97478.13;4894490;29;19915;-79
2021/04/29 04:19:42;;;;;;;;;;;;;;;12.44;71.34;97477.25;4911273;29;19915;-79
2021/04/29 04:22:07;;;;;;;;;;;;;;;12.47;72.41;97479.63;4910670;29;19950;-78
2021/04/29 04:24:33;;;;;;;;;;;;;;;12.42;72.60;97479.09;4890528;29;19915;-78
2021/04/29 04:26:58;;;;;;;;;;;;;;;12.48;72.70;97473.53;4906616;29;19915;-78
2021/04/29 04:29:23;;;;;;;;;;;;;;;12.60;71.60;97479.66;4893233;29;19915;-78
2021/04/29 04:31:49;;;;;;;;;;;;;;;12.44;74.93;97477.25;4925292;29;19999;-79
2021/04/29 04:34:14;;;;;;;;;;;;;;;12.36;73.60;97474.31;4900365;29;20704;-78
2021/04/29 04:36:39;;;;;;;;;;;;;;;12.27;74.80;97480.06;4909127;29;19916;-79
2021/04/29 04:39:05;;;;;;;;;;;;;;;12.18;74.91;97472.91;4894865;29;19927;-78
2021/04/29 04:41:30;;;;;;;;;;;;;;;12.24;75.56;97480.25;4926890;29;19988;-77
2021/04/29 04:43:56;;;;;;;;;;;;;;;12.16;74.44;97482.50;4928006;29;20459;-78
2021/04/29 04:46:21;;;;;;;;;;;;;;;12.32;74.99;97488.38;4912333;29;19910;-77
2021/04/29 04:48:46;;;;;;;;;;;;;;;12.34;74.15;97491.69;4893780;29;19946;-79
2021/04/29 04:51:12;;;;;;;;;;;;;;;12.13;76.53;97489.53;4912826;29;19919;-77
2021/04/29 04:53:37;;;;;;;;;;;;;;;12.08;76.87;97491.53;4912968;29;20363;-78
2021/04/29 04:56:03;;;;;;;;;;;;;;;12.19;76.51;97493.47;4912844;29;20517;-78
2021/04/29 04:58:28;;;;;;;;;;;;;;;11.77;78.77;97486.56;4913719;29;19922;-79
2021/04/29 05:00:53;;;;;;;;;;;;;;;11.89;78.65;97483.31;4910051;29;19915;-78
2021/04/29 05:03:19;;;;;;;;;;;;;;;12.21;77.51;97483.03;4896619;29;19966;-78
2021/04/29 05:05:45;;;;;;;;;;;;;;;11.99;78.57;97491.28;4913659;29;19923;-79
2021/04/29 05:08:10;;;;;;;;;;;;;;;12.12;76.88;97487.84;4912732;29;20066;-79
2021/04/29 05:10:36;;;;;;;;;;;;;;;12.12;76.53;97489.59;4912218;29;19926;-79
2021/04/29 05:13:02;;;;;;;;;;;;;;;12.06;78.88;97482.25;4916506;29;20382;-78
2021/04/29 05:15:28;;;;;;;;;;;;;;;11.62;79.02;97478.88;4905443;29;19926;-78
2021/04/29 05:17:54;;;;;;;;;;;;;;;11.73;79.53;97481.63;4927915;29;19969;-78
2021/04/29 05:20:19;;;;;;;;;;;;;;;11.90;78.35;97488.34;4894246;29;19919;-77
2021/04/29 05:22:46;;;;;;;;;;;;;;;11.63;81.46;97488.28;4909204;29;19919;-78
2021/04/29 05:25:11;;;;;;;;;;;;;;;11.75;81.14;97488.44;4893680;29;19975;-78
2021/04/29 05:27:37;;;;;;;;;;;;;;;11.84;81.20;97485.31;4886390;29;19920;-78
2021/04/29 05:30:03;;;;;;;;;;;;;;;11.70;80.65;97491.31;4902574;29;20581;-78
2021/04/29 05:32:29;;;;;;;;;;;;;;;11.80;80.00;97489.00;4902269;29;20491;-78
2021/04/29 05:34:54;;;;;;;;;;;;;;;11.65;80.49;97491.56;4905835;29;19938;-78
2021/04/29 05:37:19;;;;;;;;;;;;;;;12.05;79.17;97496.09;4907803;29;20002;-78
2021/04/29 05:39:45;;;;;;;;;;;;;;;11.85;80.17;97495.50;4887342;29;19926;-78
2021/04/29 05:42:10;;;;;;;;;;;;;;;11.84;79.28;97493.03;4907585;29;20275;-78
2021/04/29 05:44:35;;;;;;;;;;;;;;;11.91;80.63;97496.94;4900783;29;19927;-78
2021/04/29 05:47:01;;;;;;;;;;;;;;;11.95;78.92;97495.81;4905210;29;19952;-77
2021/04/29 05:49:27;;;;;;;;;;;;;;;11.90;79.84;97497.84;4901101;29;20274;-78
2021/04/29 05:51:52;;;;;;;;;;;;;;;12.20;78.31;97504.59;4906226;29;19923;-78
2021/04/29 05:54:17;;;;;;;;;;;;;;;11.92;78.87;97506.31;4901051;29;20200;-78
2021/04/29 05:56:43;;;;;;;;;;;;;;;12.27;76.68;97511.03;4906719;29;19919;-77
2021/04/29 05:59:08;;;;;;;;;;;;;;;12.41;76.11;97513.59;4904881;29;19919;-78
2021/04/29 06:01:33;;;;;;;;;;;;;;;12.07;78.45;97512.28;4879970;29;19923;-78
2021/04/29 06:03:59;;;;;;;;;;;;;;;12.47;77.05;97518.34;4901409;29;19923;-78
2021/04/29 06:06:25;;;;;;;;;;;;;;;12.66;76.54;97524.94;4914216;29;20316;-79
2021/04/29 06:08:51;;;;;;;;;;;;;;;12.72;74.28;97519.38;4892900;29;19926;-79
2021/04/29 06:11:16;;;;;;;;;;;;;;;12.44;75.66;97518.56;4918750;29;19927;-79
2021/04/29 06:13:44;;;;;;;;;;;;;;;12.52;75.40;97518.06;4880884;29;19943;-78
2021/04/29 06:16:09;;;;;;;;;;;;;;;12.38;76.16;97520.69;4893082;29;19923;-78
2021/04/29 06:18:35;;;;;;;;;;;;;;;12.59;75.73;97526.25;4882315;29;20547;-78
2021/04/29 06:21:00;;;;;;;;;;;;;;;12.27;76.08;97531.69;4885894;29;19923;-79
2021/04/29 06:23:26;;;;;;;;;;;;;;;12.31;75.28;97528.81;4888760;29;19918;-79
2021/04/29 06:25:51;;;;;;;;;;;;;;;12.19;76.21;97524.44;4894511;29;20388;-78
2021/04/29 06:28:17;;;;;;;;;;;;;;;11.96;75.27;97523.28;4900410;29;19915;-79
2021/04/29 06:30:42;;;;;;;;;;;;;;;11.95;75.31;97531.94;4900689;29;20634;-78
2021/04/29 06:33:08;;;;;;;;;;;;;;;12.40;74.09;97529.16;4899512;29;19979;-79
2021/04/29 06:35:33;;;;;;;;;;;;;;;11.81;76.81;97524.16;4894236;29;19983;-79
2021/04/29 06:37:59;;;;;;;;;;;;;;;12.17;75.47;97533.19;4905669;29;19919;-78
2021/04/29 06:40:25;;;;;;;;;;;;;;;12.45;73.72;97525.38;4892084;29;19919;-79
2021/04/29 06:42:51;;;;;;;;;;;;;;;12.63;73.61;97527.72;4903636;29;19919;-78
2021/04/29 06:45:16;;;;;;;;;;;;;;;12.98;71.11;97523.69;4899967;29;19926;-78
2021/04/29 06:47:41;;;;;;;;;;;;;;;13.05;72.24;97528.47;4901197;29;19915;-79
2021/04/29 06:50:07;;;;;;;;;;;;;;;12.54;73.30;97524.81;4880934;29;19921;-78
2021/04/29 06:52:33;;;;;;;;;;;;;;;13.06;71.72;97525.75;4901165;29;19942;-80
2021/04/29 06:54:58;;;;;;;;;;;;;;;12.73;71.43;97523.63;4901394;29;19998;-77
2021/04/29 06:57:23;;;;;;;;;;;;;;;12.48;72.38;97525.19;4917027;29;20204;-77
2021/04/29 06:59:50;;;;;;;;;;;;;;;12.53;72.54;97530.88;4888612;29;20006;-77
2021/04/29 07:02:15;;;;;;;;;;;;;;;12.62;72.43;97531.22;4898014;29;19923;-77
2021/04/29 07:04:41;;;;;;;;;;;;;;;12.80;70.13;97539.56;4897285;29;19915;-77
2021/04/29 07:07:06;;;;;;;;;;;;;;;12.69;70.09;97535.06;4896138;29;19978;-77
2021/04/29 07:09:31;;;;;;;;;;;;;;;13.00;68.42;97544.25;4913750;29;19915;-77
2021/04/29 07:11:57;;;;;;;;;;;;;;;12.85;70.56;97540.91;4897817;29;19973;-77
2021/04/29 07:14:22;;;;;;;;;;;;;;;12.54;72.01;97542.88;4914263;29;19926;-77
2021/04/29 07:16:48;;;;;;;;;;;;;;;12.69;70.99;97548.00;4889216;29;20308;-77
2021/04/29 07:19:13;;;;;;;;;;;;;;;12.73;71.74;97552.88;4898017;29;20411;-77
2021/04/29 07:21:39;;;;;;;;;;;;;;;13.04;70.05;97547.47;4882807;29;20005;-77
2021/04/29 07:24:04;;;;;;;;;;;;;;;12.89;70.21;97555.28;4887322;29;19915;-77
2021/04/29 07:26:30;;;;;;;;;;;;;;;12.85;68.60;97553.81;4917989;29;19923;-77
2021/04/29 07:28:55;;;;;;;;;;;;;;;13.12;69.44;97555.56;4884662;29;19950;-77
2021/04/29 07:31:21;;;;;;;;;;;;;;;13.05;70.14;97562.06;4894829;29;19947;-77
2021/04/29 07:33:46;;;;;;;;;;;;;;;13.22;68.33;97558.34;4901233;29;19930;-77
2021/04/29 07:36:12;;;;;;;;;;;;;;;13.32;67.57;97569.75;4917431;29;19915;-77
2021/04/29 07:38:37;;;;;;;;;;;;;;;13.45;66.16;97568.03;4899989;29;19915;-77
2021/04/29 07:41:03;;;;;;;;;;;;;;;13.16;67.15;97573.34;4898985;29;19970;-78
2021/04/29 07:43:28;;;;;;;;;;;;;;;13.33;66.54;97568.84;4916668;29;20317;-78
2021/04/29 07:45:54;;;;;;;;;;;;;;;13.25;66.67;97566.75;4917373;29;19915;-78
2021/04/29 07:48:19;;;;;;;;;;;;;;;13.05;68.46;97564.63;4885295;29;19915;-78
2021/04/29 07:50:45;;;;;;;;;;;;;;;13.92;65.87;97565.75;4900679;29;19915;-77
2021/04/29 07:53:10;;;;;;;;;;;;;;;13.93;64.30;97562.22;4900970;29;19922;-78
2021/04/29 07:55:35;;;;;;;;;;;;;;;14.01;63.61;97568.53;4885369;29;20304;-78
2021/04/29 07:58:01;;;;;;;;;;;;;;;14.75;61.94;97570.31;4900820;29;19915;-77
2021/04/29 08:00:27;;;;;;;;;;;;;;;14.82;60.61;97571.53;4900487;29;20490;-78
2021/04/29 08:02:52;;;;;;;;;;;;;;;14.82;59.27;97587.94;4901127;29;19922;-77
2021/04/29 08:05:17;;;;;;;;;;;;;;;14.88;58.84;97585.81;4884952;29;19916;-78
2021/04/29 08:07:43;;;;;;;;;;;;;;;15.94;56.39;97588.34;4901282;29;20002;-78
2021/04/29 08:10:09;;;;;;;;;;;;;;;14.90;59.36;97589.97;4899133;29;20502;-78
2021/04/29 08:12:34;;;;;;;;;;;;;;;14.42;60.23;97580.34;4885761;29;19923;-77
2021/04/29 08:15:00;;;;;;;;;;;;;;;15.06;60.03;97592.28;4898424;29;20294;-78
2021/04/29 08:17:26;;;;;;;;;;;;;;;14.60;59.65;97591.22;4900151;29;19919;-78
2021/04/29 08:19:53;;;;;;;;;;;;;;;15.03;58.97;97593.31;4884964;29;19927;-77
2021/04/29 08:22:19;;;;;;;;;;;;;;;14.78;60.04;97589.09;4916689;29;19915;-78
2021/04/29 08:24:44;;;;;;;;;;;;;;;14.59;58.60;97586.94;4882966;29;19915;-77
2021/04/29 08:27:10;;;;;;;;;;;;;;;15.61;59.23;97579.56;4885744;29;19919;-77
2021/04/29 08:29:35;;;;;;;;;;;;;;;14.68;61.21;97593.25;4900709;29;20270;-77
2021/04/29 08:32:01;;;;;;;;;;;;;;;14.86;61.75;97604.06;4918243;29;20301;-77
2021/04/29 08:34:26;;;;;;;;;;;;;;;14.53;61.08;97597.75;4892801;29;19925;-78
2021/04/29 08:36:52;;;;;;;;;;;;;;;13.75;64.86;97606.56;4919705;29;19914;-78
2021/04/29 08:39:17;;;;;;;;;;;;;;;13.95;61.28;97614.72;4919008;29;20369;-78
2021/04/29 08:41:43;;;;;;;;;;;;;;;13.47;61.98;97609.31;4936099;29;20405;-77
2021/04/29 08:44:09;;;;;;;;;;;;;;;13.71;61.27;97612.84;4919786;29;19962;-77
2021/04/29 08:46:34;;;;;;;;;;;;;;;14.62;57.03;97611.84;4919517;29;19915;-77
2021/04/29 08:49:00;;;;;;;;;;;;;;;15.77;54.05;97613.84;4893643;29;19923;-78
2021/04/29 08:51:26;;;;;;;;;;;;;;;16.67;51.93;97600.84;4900617;29;19919;-78
2021/04/29 08:53:52;;;;;;;;;;;;;;;16.13;52.82;97603.38;4885808;29;19915;-78
2021/04/29 08:56:22;;;;;;;;;;;;;;;15.39;55.48;97622.66;4901030;29;19919;-78
2021/04/29 08:58:47;;;;;;;;;;;;;;;13.75;58.55;97614.31;4886469;29;20149;-78
2021/04/29 09:01:13;;;;;;;;;;;;;;;13.49;63.25;97622.97;4882746;29;19926;-77
2021/04/29 09:03:39;;;;;;;;;;;;;;;14.05;55.52;97626.09;4911070;29;20384;-77
2021/04/29 09:06:05;;;;;;;;;;;;;;;14.38;57.43;97620.34;4906813;29;19923;-77
2021/04/29 09:08:31;;;;;;;;;;;;;;;14.41;55.96;97622.75;4896767;29;20403;-76
2021/04/29 09:11:07;;;;;;;;;;;;;;;13.30;60.58;97629.34;4896031;29;19957;-77
2021/04/29 09:13:32;;;;;;;;;;;;;;;12.92;62.40;97639.53;4895457;29;19915;-77
2021/04/29 09:16:03;;;;;;;;;;;;;;;12.50;66.26;97629.22;4898877;29;19915;-79
2021/04/29 09:18:32;;;;;;;;;;;;;;;12.36;66.56;97629.22;4907575;29;19938;-79
2021/04/29 09:20:59;;;;;;;;;;;;;;;12.28;66.85;97626.28;4908516;29;19966;-78
2021/04/29 09:23:29;;;;;;;;;;;;;;;12.18;67.44;97638.06;4903787;29;20363;-78
2021/04/29 09:26:02;;;;;;;;;;;;;;;12.46;64.62;97642.41;4901902;29;19998;-79
2021/04/29 09:28:34;;;;;;;;;;;;;;;12.67;63.58;97638.47;4898181;29;19930;-77
2021/04/29 09:31:00;;;;;;;;;;;;;;;12.82;65.13;97636.72;4914009;29;19949;-78
2021/04/29 09:33:33;;;;;;;;;;;;;;;12.45;64.41;97631.25;4897087;29;20018;-79
2021/04/29 09:35:58;;;;;;;;;;;;;;;12.65;62.40;97631.75;4896305;29;19919;-79
2021/04/29 09:38:30;;;;;;;;;;;;;;;12.60;61.35;97638.97;4895496;29;19926;-78
2021/04/29 09:40:55;;;;;;;;;;;;;;;13.02;58.56;97632.00;4899261;29;20429;-78
2021/04/29 09:43:20;;;;;;;;;;;;;;;13.26;58.90;97639.97;4896181;29;19915;-78
2021/04/29 09:45:46;;;;;;;;;;;;;;;13.25;56.28;97636.56;4895846;29;19923;-79
2021/04/29 09:48:11;;;;;;;;;;;;;;;15.01;51.16;97636.69;4901399;29;19914;-78
2021/04/29 09:50:41;;;;;;;;;;;;;;;15.58;52.29;97629.13;4904979;29;20130;-79
2021/04/29 09:53:08;;;;;;;;;;;;;;;13.32;55.99;97639.56;4911391;29;19923;-79
2021/04/29 09:55:35;;;;;;;;;;;;;;;14.57;58.58;97639.81;4888496;29;19919;-78
2021/04/29 09:58:26;;;;;;;;;;;;;;;12.45;66.29;97659.66;4911509;29;19921;-78
2021/04/29 10:00:51;;;;;;;;;;;;;;;10.99;85.67;97680.97;4928974;29;20341;-77
2021/04/29 10:03:18;;;;;;;;;;;;;;;10.11;100.00;97681.31;4894911;29;19919;-80
2021/04/29 10:05:43;;;;;;;;;;;;;;;10.32;100.00;97685.38;4903639;29;19962;-81
2021/04/29 10:08:12;;;;;;;;;;;;;;;10.58;100.00;97675.44;4911009;29;19915;-80
2021/04/29 10:10:39;;;;;;;;;;;;;;;11.27;100.00;97680.25;4912383;29;19915;-79
2021/04/29 10:13:05;;;;;;;;;;;;;;;11.76;100.00;97671.44;4911292;29;20005;-79
2021/04/29 10:15:32;;;;;;;;;;;;;;;12.11;99.36;97669.44;4911695;29;19965;-79
2021/04/29 10:17:57;;;;;;;;;;;;;;;12.19;97.13;97665.56;4905759;29;19921;-79
2021/04/29 10:20:23;;;;;;;;;;;;;;;13.06;97.63;97651.56;4898446;29;19954;-78
2021/04/29 10:22:49;;;;;;;;;;;;;;;13.39;95.96;97646.84;4891321;29;19919;-79
2021/04/29 10:25:14;;;;;;;;;;;;;;;13.29;94.58;97645.78;4911113;29;19915;-80
2021/04/29 10:27:43;;;;;;;;;;;;;;;13.16;89.98;97640.56;4904361;29;19915;-78
2021/04/29 10:30:12;;;;;;;;;;;;;;;14.01;84.14;97638.41;4894908;29;19911;-79
2021/04/29 10:32:38;;;;;;;;;;;;;;;14.52;73.24;97632.34;4914846;29;19923;-79
2021/04/29 10:35:22;;;;;;;;;;;;;;;14.23;69.18;97637.78;4911363;29;19970;-78
2021/04/29 10:37:54;;;;;;;;;;;;;;;14.08;62.63;97633.66;4925492;29;19991;-78
2021/04/29 10:40:29;;;;;;;;;;;;;;;13.70;71.28;97655.16;4907481;29;19950;-79
2021/04/29 10:42:54;;;;;;;;;;;;;;;13.24;69.27;97645.22;4909925;29;20806;-78
2021/04/29 10:45:20;;;;;;;;;;;;;;;14.73;71.27;97631.78;4910305;29;19926;-79
2021/04/29 10:47:45;;;;;;;;;;;;;;;13.74;70.22;97641.09;4903136;29;20546;-80
2021/04/29 10:50:15;;;;;;;;;;;;;;;13.09;66.91;97643.59;4913447;29;20423;-79
2021/04/29 10:52:53;;;;;;;;;;;;;;;13.68;72.09;97646.69;4908227;29;19919;-79
2021/04/29 10:55:22;;;;;;;;;;;;;;;13.71;69.28;97646.50;4908927;29;19971;-79
2021/04/29 10:57:47;;;;;;;;;;;;;;;13.81;70.06;97642.34;4907554;29;19926;-79
2021/04/29 11:00:13;;;;;;;;;;;;;;;13.65;67.75;97636.53;4909259;29;19915;-80
2021/04/29 11:02:38;;;;;;;;;;;;;;;15.03;60.23;97639.16;4888580;29;19919;-79
2021/04/29 11:05:04;;;;;;;;;;;;;;;15.16;67.00;97647.69;4926472;29;20469;-80
2021/04/29 11:07:30;;;;;;;;;;;;;;;14.18;57.99;97639.03;4926527;29;19948;-79
2021/04/29 11:10:04;;;;;;;;;;;;;;;14.12;66.52;97649.81;4899973;29;19919;-78
2021/04/29 11:12:48;;;;;;;;;;;;;;;14.07;64.08;97647.53;4904154;29;19926;-79
2021/04/29 11:15:32;;;;;;;;;;;;;;;13.90;63.69;97650.44;4901812;29;20013;-79
2021/04/29 11:18:13;;;;;;;;;;;;;;;14.63;58.86;97653.19;4924470;29;19923;-78
2021/04/29 11:20:42;;;;;;;;;;;;;;;14.60;56.40;97647.41;4908386;29;19919;-79
2021/04/29 11:23:07;;;;;;;;;;;;;;;14.58;60.12;97651.84;4903350;29;19945;-79
2021/04/29 11:25:33;;;;;;;;;;;;;;;13.77;55.44;97648.66;4909928;29;19943;-78
2021/04/29 11:27:58;;;;;;;;;;;;;;;13.99;59.26;97647.22;4903395;29;19915;-79
2021/04/29 11:30:24;;;;;;;;;;;;;;;13.96;60.25;97650.03;4907716;29;19911;-79
2021/04/29 11:33:03;;;;;;;;;;;;;;;13.74;62.39;97643.69;4903122;29;19919;-79
2021/04/29 11:35:30;;;;;;;;;;;;;;;13.39;56.81;97651.19;4909814;29;19916;-79
2021/04/29 11:37:55;;;;;;;;;;;;;;;13.24;53.94;97649.56;4907079;29;19915;-79
2021/04/29 11:40:21;;;;;;;;;;;;;;;13.48;51.63;97640.25;4893306;29;19914;-78
2021/04/29 11:42:49;;;;;;;;;;;;;;;15.22;48.57;97643.84;4908633;29;19960;-79
2021/04/29 11:45:16;;;;;;;;;;;;;;;14.72;44.23;97645.69;4898279;29;19926;-79
2021/04/29 11:48:00;;;;;;;;;;;;;;;15.52;43.10;97645.13;4924845;29;19950;-80
2021/04/29 11:50:26;;;;;;;;;;;;;;;16.04;42.34;97628.28;4902935;29;19988;-79
2021/04/29 11:53:01;;;;;;;;;;;;;;;16.25;41.02;97633.59;4924416;29;20389;-80
2021/04/29 11:55:26;;;;;;;;;;;;;;;16.73;40.38;97635.91;4907847;29;19923;-80
2021/04/29 11:57:52;;;;;;;;;;;;;;;16.21;39.00;97640.78;4894483;29;19992;-77
2021/04/29 12:00:18;;;;;;;;;;;;;;;17.36;42.95;97636.09;4910218;29;19978;-78
2021/04/29 12:02:43;;;;;;;;;;;;;;;14.84;42.28;97650.00;4900470;29;19986;-79
2021/04/29 12:05:08;;;;;;;;;;;;;;;15.26;40.65;97642.69;4905662;29;20365;-80
2021/04/29 12:07:41;;;;;;;;;;;;;;;16.39;42.67;97650.69;4906795;29;19938;-80
2021/04/29 12:10:06;;;;;;;;;;;;;;;16.99;43.70;97646.03;4906592;29;19919;-79
2021/04/29 12:12:32;;;;;;;;;;;;;;;15.01;39.65;97662.59;4897493;29;19982;-79
2021/04/29 12:14:59;;;;;;;;;;;;;;;13.84;45.05;97666.38;4888991;29;19922;-80
2021/04/29 12:17:26;;;;;;;;;;;;;;;14.07;45.88;97667.41;4921612;29;20017;-80
2021/04/29 12:19:52;;;;;;;;;;;;;;;13.86;48.98;97669.69;4907335;29;19919;-78
2021/04/29 12:22:19;;;;;;;;;;;;;;;13.47;50.26;97676.56;4902781;29;20278;-80
2021/04/29 12:24:44;;;;;;;;;;;;;;;13.79;49.19;97675.25;4901204;29;20388;-79
2021/04/29 12:27:22;;;;;;;;;;;;;;;14.68;51.12;97672.75;4885187;29;19922;-79
2021/04/29 12:30:04;;;;;;;;;;;;;;;13.64;46.42;97691.81;4904915;29;20403;-80
2021/04/29 12:32:36;;;;;;;;;;;;;;;13.62;49.08;97691.06;4896916;29;19926;-79
2021/04/29 12:35:02;;;;;;;;;;;;;;;13.54;52.88;97701.91;4897425;29;19923;-78
2021/04/29 12:37:27;;;;;;;;;;;;;;;14.27;46.97;97707.50;4905568;29;19975;-79
2021/04/29 12:39:53;;;;;;;;;;;;;;;14.52;46.01;97715.25;4896306;29;20036;-80
2021/04/29 12:42:19;;;;;;;;;;;;;;;13.77;48.48;97713.34;4890280;29;19931;-79